Wyano, Pennsylvania
Current Conditions -  °F | °C
As of 1:53 PM on Sunday 23 Nov 2014 (Local Time) from KAGC Reporting Station
Few Clouds Few Clouds  
Wind Chill: 63°   Ceiling: Unl
Heat Index: 63°   Visibility: 10mi
Dew Point: 43°   Wind: 10mph
Humidity: 48%   Direction: 150°SSE
Pressure: 29.94"   Gusts: NA
Location:  40.2°N, 79.7°W
Report Text: KAGC 231853Z 15009KT 10SM FEW041 17/06 A2994 RMK AO2 SLP141 T01720061
Loading
Personal Weather Stations






























Interactive Weather Map New forecast layout! Learn more

10-Day Weather Forecast

Advertisements
Track Severe Weather on mobile